Time,TemperatureF,DewpointF,PressureIn,WindDirection,WindDirectionDegrees,WindSpeedMPH,WindSpeedGustMPH,Humidity,HourlyPrecipIn,Conditions,Clouds,dailyrainin,SoftwareType,DateUTC
2013-11-27 00:06:00,39.2,39.0,29.68,NW,309,10.0,-999.0,100,-99.99,,,0.00,weatherlink.com 1.10,2013-11-27 05:06:00,
2013-11-27 00:21:00,38.8,39.0,29.68,NW,326,9.0,-999.0,100,-99.99,,,0.00,weatherlink.com 1.10,2013-11-27 05:21:00,
2013-11-27 00:36:00,38.5,39.0,29.68,NW,326,8.0,-999.0,100,-99.99,,,0.00,weatherlink.com 1.10,2013-11-27 05:36:00,
2013-11-27 00:51:00,37.9,38.0,29.67,NW,304,5.0,-999.0,100,-99.99,,,0.00,weatherlink.com 1.10,2013-11-27 05:51:00,
2013-11-27 01:06:00,37.5,38.0,29.67,NW,319,4.0,-999.0,100,-99.99,,,0.00,weatherlink.com 1.10,2013-11-27 06:06:00,
2013-11-27 01:21:00,37.0,37.0,29.68,WNW,293,5.0,-999.0,100,-99.99,,,0.00,weatherlink.com 1.10,2013-11-27 06:21:00,
2013-11-27 01:36:00,36.6,37.0,29.68,NNW,331,6.0,-999.0,100,-99.99,,,0.00,weatherlink.com 1.10,2013-11-27 06:36:00,
2013-11-27 01:51:00,36.5,37.0,29.66,NW,314,4.0,-999.0,100,-99.99,,,0.00,weatherlink.com 1.10,2013-11-27 06:51:00,
2013-11-27 02:06:00,36.5,37.0,29.67,NW,315,5.0,-999.0,100,-99.99,,,0.00,weatherlink.com 1.10,2013-11-27 07:06:00,
2013-11-27 02:21:00,35.8,36.0,29.69,NW,307,11.0,-999.0,100,-99.99,,,0.00,weatherlink.com 1.10,2013-11-27 07:21:00,
2013-11-27 02:36:00,34.7,35.0,29.70,NW,309,5.0,-999.0,100,-99.99,,,0.00,weatherlink.com 1.10,2013-11-27 07:36:00,
2013-11-27 02:51:00,34.0,34.0,29.67,NW,316,6.0,-999.0,100,-99.99,,,0.00,weatherlink.com 1.10,2013-11-27 07:51:00,
2013-11-27 03:06:00,32.8,33.0,29.66,WNW,288,11.0,-999.0,100,-99.99,,,0.00,weatherlink.com 1.10,2013-11-27 08:06:00,
2013-11-27 03:21:00,32.4,32.0,29.72,NW,325,9.0,-999.0,100,-99.99,,,0.00,weatherlink.com 1.10,2013-11-27 08:21:00,
2013-11-27 03:36:00,31.8,32.0,29.68,NW,321,10.0,-999.0,100,-99.99,,,0.00,weatherlink.com 1.10,2013-11-27 08:36:00,
2013-11-27 03:51:00,31.5,32.0,29.67,NW,310,6.0,-999.0,100,-99.99,,,0.00,weatherlink.com 1.10,2013-11-27 08:51:00,
2013-11-27 04:06:00,31.0,31.0,29.68,NW,308,7.0,-999.0,100,-99.99,,,0.00,weatherlink.com 1.10,2013-11-27 09:06:00,
2013-11-27 04:21:00,30.6,31.0,29.68,NNW,347,6.0,-999.0,100,-99.99,,,0.00,weatherlink.com 1.10,2013-11-27 09:21:00,
2013-11-27 04:36:00,30.6,31.0,29.68,NW,314,9.0,-999.0,100,-99.99,,,0.00,weatherlink.com 1.10,2013-11-27 09:36:00,
2013-11-27 04:51:00,30.0,30.0,29.69,NW,326,9.0,-999.0,100,-99.99,,,0.00,weatherlink.com 1.10,2013-11-27 09:51:00,
2013-11-27 05:06:00,29.1,29.0,29.68,WNW,302,11.0,-999.0,100,-99.99,,,0.00,weatherlink.com 1.10,2013-11-27 10:06:00,
2013-11-27 05:21:00,28.8,29.0,29.69,NW,323,9.0,-999.0,99,-99.99,,,0.00,weatherlink.com 1.10,2013-11-27 10:21:00,
2013-11-27 05:36:00,28.7,29.0,29.69,NNW,333,10.0,-999.0,99,-99.99,,,0.00,weatherlink.com 1.10,2013-11-27 10:36:00,
2013-11-27 05:52:00,28.2,28.0,29.70,NNW,345,9.0,-999.0,99,-99.99,,,0.00,weatherlink.com 1.10,2013-11-27 10:52:00,
2013-11-27 06:07:00,27.5,27.0,29.70,West,272,6.0,-999.0,98,-99.99,,,0.00,weatherlink.com 1.10,2013-11-27 11:07:00,
2013-11-27 06:22:00,27.2,27.0,29.71,WNW,293,12.0,-999.0,97,-99.99,,,0.00,weatherlink.com 1.10,2013-11-27 11:22:00,
2013-11-27 06:37:00,26.7,26.0,29.71,NW,313,7.0,-999.0,97,-99.99,,,0.00,weatherlink.com 1.10,2013-11-27 11:37:00,
2013-11-27 06:52:00,26.6,26.0,29.71,NW,306,12.0,-999.0,97,-99.99,,,0.00,weatherlink.com 1.10,2013-11-27 11:52:00,
2013-11-27 07:07:00,26.1,25.0,29.71,NW,306,14.0,-999.0,97,-99.99,,,0.00,weatherlink.com 1.10,2013-11-27 12:07:00,
2013-11-27 07:22:00,25.8,25.0,29.71,WNW,293,7.0,-999.0,97,-99.99,,,0.00,weatherlink.com 1.10,2013-11-27 12:22:00,
2013-11-27 07:37:00,25.6,25.0,29.71,WNW,298,10.0,-999.0,97,-99.99,,,0.00,weatherlink.com 1.10,2013-11-27 12:37:00,
2013-11-27 07:52:00,25.4,25.0,29.72,WNW,303,10.0,-999.0,96,-99.99,,,0.00,weatherlink.com 1.10,2013-11-27 12:52:00,
2013-11-27 08:07:00,25.1,24.0,29.73,NW,308,9.0,-999.0,96,-99.99,,,0.00,weatherlink.com 1.10,2013-11-27 13:07:00,
2013-11-27 08:22:00,25.1,24.0,29.72,NW,322,10.0,-999.0,96,-99.99,,,0.00,weatherlink.com 1.10,2013-11-27 13:22:00,
2013-11-27 08:37:00,24.5,24.0,29.74,NW,322,12.0,-999.0,96,-99.99,,,0.00,weatherlink.com 1.10,2013-11-27 13:37:00,
2013-11-27 08:52:00,24.4,24.0,29.74,NW,320,9.0,-999.0,96,-99.99,,,0.00,weatherlink.com 1.10,2013-11-27 13:52:00,
2013-11-27 09:07:00,24.1,23.0,29.74,WNW,303,9.0,-999.0,95,-99.99,,,0.00,weatherlink.com 1.10,2013-11-27 14:07:00,
2013-11-27 09:22:00,24.1,23.0,29.74,NNW,342,11.0,-999.0,95,-99.99,,,0.00,weatherlink.com 1.10,2013-11-27 14:22:00,
2013-11-27 09:37:00,23.9,23.0,29.75,North,355,11.0,-999.0,94,-99.99,,,0.00,weatherlink.com 1.10,2013-11-27 14:37:00,
2013-11-27 09:52:00,23.9,23.0,29.74,North,11,11.0,-999.0,94,-99.99,,,0.00,weatherlink.com 1.10,2013-11-27 14:52:00,
2013-11-27 10:07:00,24.1,23.0,29.74,NNE,24,14.0,-999.0,94,-99.99,,,0.00,weatherlink.com 1.10,2013-11-27 15:07:00,
2013-11-27 10:22:00,24.1,23.0,29.72,NW,319,14.0,-999.0,94,-99.99,,,0.00,weatherlink.com 1.10,2013-11-27 15:22:00,
2013-11-27 10:37:00,24.5,23.0,29.73,NW,323,13.0,-999.0,94,-99.99,,,0.00,weatherlink.com 1.10,2013-11-27 15:37:00,
2013-11-27 10:52:00,24.1,22.0,29.73,NNE,19,6.0,-999.0,93,-99.99,,,0.00,weatherlink.com 1.10,2013-11-27 15:52:00,
2013-11-27 11:07:00,23.9,23.0,29.74,WNW,294,11.0,-999.0,94,-99.99,,,0.00,weatherlink.com 1.10,2013-11-27 16:07:00,
2013-11-27 11:22:00,23.3,22.0,29.74,NNW,329,10.0,-999.0,94,-99.99,,,0.00,weatherlink.com 1.10,2013-11-27 16:22:00,
2013-11-27 11:37:00,23.3,22.0,29.75,WNW,282,11.0,-999.0,94,-99.99,,,0.00,weatherlink.com 1.10,2013-11-27 16:37:00,
2013-11-27 11:52:00,23.2,22.0,29.75,NW,309,14.0,-999.0,95,-99.99,,,0.00,weatherlink.com 1.10,2013-11-27 16:52:00,
2013-11-27 12:07:00,22.9,21.0,29.76,WNW,299,12.0,-999.0,93,-99.99,,,0.00,weatherlink.com 1.10,2013-11-27 17:07:00,
2013-11-27 12:22:00,23.6,22.0,29.75,WNW,300,13.0,-999.0,94,-99.99,,,0.00,weatherlink.com 1.10,2013-11-27 17:22:00,
2013-11-27 12:37:00,23.6,22.0,29.75,NW,323,14.0,-999.0,93,-99.99,,,0.00,weatherlink.com 1.10,2013-11-27 17:37:00,
2013-11-27 12:52:00,23.8,22.0,29.76,NW,306,19.0,-999.0,92,-99.99,,,0.00,weatherlink.com 1.10,2013-11-27 17:52:00,
2013-11-27 13:07:00,24.2,22.0,29.76,West,279,26.0,-999.0,90,-99.99,,,0.00,weatherlink.com 1.10,2013-11-27 18:07:00,
2013-11-27 13:22:00,23.9,21.0,29.76,NW,322,11.0,-999.0,88,-99.99,,,0.00,weatherlink.com 1.10,2013-11-27 18:22:00,
2013-11-27 13:37:00,23.3,19.0,29.76,NW,315,16.0,-999.0,83,-99.99,,,0.00,weatherlink.com 1.10,2013-11-27 18:37:00,
2013-11-27 13:52:00,22.2,17.0,29.79,NW,319,15.0,-999.0,80,-99.99,,,0.00,weatherlink.com 1.10,2013-11-27 18:52:00,
2013-11-27 14:07:00,21.8,17.0,29.80,NNW,340,13.0,-999.0,81,-99.99,,,0.00,weatherlink.com 1.10,2013-11-27 19:07:00,
2013-11-27 14:22:00,21.6,17.0,29.83,WNW,302,9.0,-999.0,82,-99.99,,,0.00,weatherlink.com 1.10,2013-11-27 19:22:00,
2013-11-27 14:37:00,22.1,17.0,29.85,WSW,237,11.0,-999.0,79,-99.99,,,0.00,weatherlink.com 1.10,2013-11-27 19:37:00,
2013-11-27 14:52:00,21.1,15.0,29.88,NW,307,13.0,-999.0,78,-99.99,,,0.00,weatherlink.com 1.10,2013-11-27 19:52:00,
2013-11-27 15:07:00,21.0,17.0,29.90,North,360,13.0,-999.0,83,-99.99,,,0.00,weatherlink.com 1.10,2013-11-27 20:07:00,
2013-11-27 15:22:00,20.0,16.0,29.92,WNW,296,23.0,-999.0,84,-99.99,,,0.00,weatherlink.com 1.10,2013-11-27 20:22:00,
2013-11-27 15:37:00,19.9,15.0,29.93,NW,320,10.0,-999.0,82,-99.99,,,0.00,weatherlink.com 1.10,2013-11-27 20:37:00,
2013-11-27 15:53:00,20.0,16.0,29.95,NW,309,13.0,-999.0,83,-99.99,,,0.00,weatherlink.com 1.10,2013-11-27 20:53:00,
2013-11-27 16:08:00,19.9,13.0,29.96,WNW,286,11.0,-999.0,74,-99.99,,,0.00,weatherlink.com 1.10,2013-11-27 21:08:00,
2013-11-27 16:23:00,19.5,12.0,29.97,WNW,293,22.0,-999.0,74,-99.99,,,0.00,weatherlink.com 1.10,2013-11-27 21:23:00,
2013-11-27 16:38:00,19.1,12.0,29.99,NW,315,7.0,-999.0,75,-99.99,,,0.00,weatherlink.com 1.10,2013-11-27 21:38:00,
2013-11-27 16:53:00,19.1,12.0,30.00,West,264,13.0,-999.0,75,-99.99,,,0.00,weatherlink.com 1.10,2013-11-27 21:53:00,
2013-11-27 17:08:00,18.4,11.0,30.02,NW,325,22.0,-999.0,73,-99.99,,,0.00,weatherlink.com 1.10,2013-11-27 22:08:00,
2013-11-27 17:23:00,18.0,11.0,30.03,NW,308,15.0,-999.0,75,-99.99,,,0.00,weatherlink.com 1.10,2013-11-27 22:23:00,
2013-11-27 17:38:00,17.8,11.0,30.05,WNW,288,9.0,-999.0,74,-99.99,,,0.00,weatherlink.com 1.10,2013-11-27 22:38:00,
2013-11-27 17:53:00,17.7,11.0,30.04,NW,319,18.0,-999.0,74,-99.99,,,0.00,weatherlink.com 1.10,2013-11-27 22:53:00,
2013-11-27 18:08:00,17.3,11.0,30.06,NW,309,17.0,-999.0,76,-99.99,,,0.00,weatherlink.com 1.10,2013-11-27 23:08:00,
2013-11-27 18:23:00,17.2,11.0,30.07,NW,321,6.0,-999.0,76,-99.99,,,0.00,weatherlink.com 1.10,2013-11-27 23:23:00,
2013-11-27 18:38:00,17.2,10.0,30.08,NW,311,10.0,-999.0,74,-99.99,,,0.00,weatherlink.com 1.10,2013-11-27 23:38:00,
2013-11-27 18:53:00,17.3,10.0,30.09,WNW,291,11.0,-999.0,74,-99.99,,,0.00,weatherlink.com 1.10,2013-11-27 23:53:00,
2013-11-27 19:08:00,17.3,12.0,30.10,NNW,336,13.0,-999.0,79,-99.99,,,0.00,weatherlink.com 1.10,2013-11-28 00:08:00,
2013-11-27 19:23:00,16.7,11.0,30.10,NW,313,11.0,-999.0,79,-99.99,,,0.00,weatherlink.com 1.10,2013-11-28 00:23:00,
2013-11-27 19:38:00,16.7,11.0,30.12,NW,317,6.0,-999.0,79,-99.99,,,0.00,weatherlink.com 1.10,2013-11-28 00:38:00,
2013-11-27 19:53:00,16.7,11.0,30.13,WNW,290,16.0,-999.0,79,-99.99,,,0.00,weatherlink.com 1.10,2013-11-28 00:53:00,
2013-11-27 20:08:00,16.4,12.0,30.12,NNW,344,11.0,-999.0,82,-99.99,,,0.00,weatherlink.com 1.10,2013-11-28 01:08:00,
2013-11-27 20:23:00,16.5,11.0,30.12,NW,306,10.0,-999.0,77,-99.99,,,0.00,weatherlink.com 1.10,2013-11-28 01:23:00,
2013-11-27 20:38:00,16.5,11.0,30.13,NW,313,13.0,-999.0,77,-99.99,,,0.00,weatherlink.com 1.10,2013-11-28 01:38:00,
2013-11-27 20:53:00,16.4,11.0,30.14,NW,325,10.0,-999.0,79,-99.99,,,0.00,weatherlink.com 1.10,2013-11-28 01:53:00,
2013-11-27 21:08:00,16.4,11.0,30.14,WNW,292,11.0,-999.0,79,-99.99,,,0.00,weatherlink.com 1.10,2013-11-28 02:08:00,
2013-11-27 21:23:00,16.2,11.0,30.15,WNW,297,11.0,-999.0,80,-99.99,,,0.00,weatherlink.com 1.10,2013-11-28 02:23:00,
2013-11-27 21:38:00,16.1,11.0,30.16,NW,311,11.0,-999.0,81,-99.99,,,0.00,weatherlink.com 1.10,2013-11-28 02:38:00,
2013-11-27 21:53:00,15.9,12.0,30.16,West,273,15.0,-999.0,84,-99.99,,,0.00,weatherlink.com 1.10,2013-11-28 02:53:00,
2013-11-27 22:08:00,15.6,9.0,30.16,NNW,333,15.0,-999.0,75,-99.99,,,0.00,weatherlink.com 1.10,2013-11-28 03:08:00,
2013-11-27 22:23:00,15.2,9.0,30.18,NW,310,11.0,-999.0,75,-99.99,,,0.00,weatherlink.com 1.10,2013-11-28 03:23:00,
2013-11-27 22:38:00,15.1,9.0,30.20,WNW,298,12.0,-999.0,76,-99.99,,,0.00,weatherlink.com 1.10,2013-11-28 03:38:00,
2013-11-27 22:53:00,15.1,9.0,30.21,WNW,301,10.0,-999.0,78,-99.99,,,0.00,weatherlink.com 1.10,2013-11-28 03:53:00,
2013-11-27 23:08:00,15.1,9.0,30.21,WNW,295,7.0,-999.0,77,-99.99,,,0.00,weatherlink.com 1.10,2013-11-28 04:08:00,
2013-11-27 23:24:00,14.9,10.0,30.22,North,355,0.0,-999.0,79,-99.99,,,0.00,weatherlink.com 1.10,2013-11-28 04:24:00,
2013-11-27 23:39:00,15.1,10.0,30.26,West,273,2.0,-999.0,79,-99.99,,,0.00,weatherlink.com 1.10,2013-11-28 04:39:00,
2013-11-27 23:54:00,15.2,10.0,30.27,NNW,338,8.0,-999.0,80,-99.99,,,0.00,weatherlink.com 1.10,2013-11-28 04:54:00,